Time;durP1;ratioP1;P1;durP2;ratioP2;P2;SDS_P1;SDS_P2;PMS_P1;PMS_P2;Temp;Humidity;BMP_temperature;BMP_pressure;BME280_temperature;BME280_humidity;BME280_pressure;Samples;Min_cycle;Max_cycle;Signal;HPM_P1;HPM_P2
2023/03/14 00:02:16;;;;;;;1.55;0.80;;;8.30;86.70;;;;;;5036935;28;22003;-68
2023/03/14 00:04:42;;;;;;;1.20;0.80;;;8.30;88.50;;;;;;5028810;28;20040;-67
2023/03/14 00:07:07;;;;;;;1.55;0.73;;;8.30;90.30;;;;;;5031562;28;20622;-67
2023/03/14 00:09:34;;;;;;;1.13;0.77;;;8.20;89.70;;;;;;5032217;28;20116;-67
2023/03/14 00:12:00;;;;;;;0.95;0.70;;;8.20;91.00;;;;;;5044395;28;20052;-67
2023/03/14 00:14:25;;;;;;;1.38;0.75;;;8.20;92.20;;;;;;5059922;28;20057;-67
2023/03/14 00:16:51;;;;;;;2.58;0.80;;;8.20;88.60;;;;;;5055193;28;20025;-67
2023/03/14 00:19:17;;;;;;;2.25;0.65;;;8.10;89.30;;;;;;5038680;28;20036;-66
2023/03/14 00:21:42;;;;;;;0.95;0.70;;;8.00;88.40;;;;;;5051195;28;20037;-67
2023/03/14 00:24:08;;;;;;;1.20;0.80;;;8.00;88.20;;;;;;5046859;28;20029;-66
2023/03/14 00:26:34;;;;;;;1.02;0.70;;;7.90;87.20;;;;;;5052461;28;20040;-66
2023/03/14 00:28:59;;;;;;;1.52;0.88;;;7.90;89.10;;;;;;5052616;28;20033;-66
2023/03/14 00:31:25;;;;;;;1.73;0.70;;;7.90;87.90;;;;;;5047910;28;20029;-66
2023/03/14 00:33:53;;;;;;;0.93;0.70;;;7.80;86.90;;;;;;5030351;28;20033;-66
2023/03/14 00:36:20;;;;;;;0.75;0.60;;;7.80;87.80;;;;;;5049527;28;20430;-66
2023/03/14 00:38:48;;;;;;;0.85;0.70;;;7.80;87.80;;;;;;5020081;28;20028;-66
2023/03/14 00:41:16;;;;;;;1.40;0.60;;;7.80;91.20;;;;;;5053295;28;20033;-66
2023/03/14 00:43:42;;;;;;;1.45;0.80;;;7.80;91.80;;;;;;5049619;28;20422;-66
2023/03/14 00:46:08;;;;;;;0.55;0.55;;;7.80;94.60;;;;;;5035620;28;20041;-66
2023/03/14 00:48:34;;;;;;;0.90;0.70;;;7.90;95.30;;;;;;5046432;28;20329;-66
2023/03/14 00:51:00;;;;;;;0.60;0.60;;;8.00;94.70;;;;;;5054082;28;20036;-66
2023/03/14 00:53:26;;;;;;;0.65;0.60;;;8.00;97.40;;;;;;5054833;28;20473;-66
2023/03/14 00:55:51;;;;;;;0.82;0.63;;;8.00;94.00;;;;;;5048408;28;20091;-66
2023/03/14 00:58:18;;;;;;;1.23;0.70;;;7.90;94.30;;;;;;5046303;28;20028;-66
2023/03/14 01:00:44;;;;;;;1.17;0.68;;;8.00;94.20;;;;;;5040129;28;20040;-65
2023/03/14 01:03:11;;;;;;;1.55;0.70;;;8.10;95.90;;;;;;5049451;28;20025;-66
2023/03/14 01:05:37;;;;;;;0.80;0.60;;;8.20;95.30;;;;;;5041066;28;20053;-66
2023/03/14 01:08:04;;;;;;;1.25;0.80;;;8.30;96.00;;;;;;5042196;28;20031;-66
2023/03/14 01:10:29;;;;;;;0.60;0.60;;;8.40;97.00;;;;;;5038300;28;20056;-66
2023/03/14 01:12:55;;;;;;;0.75;0.60;;;8.40;97.30;;;;;;5053800;28;20025;-65
2023/03/14 01:15:22;;;;;;;1.48;0.70;;;8.40;97.20;;;;;;5059635;28;20040;-66
2023/03/14 01:17:47;;;;;;;0.70;0.70;;;8.50;96.70;;;;;;5051254;28;20021;-66
2023/03/14 01:20:14;;;;;;;1.25;0.70;;;8.50;96.20;;;;;;5059925;28;20096;-66
2023/03/14 01:22:40;;;;;;;1.25;0.70;;;8.60;96.50;;;;;;5054116;28;20108;-66
2023/03/14 01:25:08;;;;;;;0.90;0.70;;;8.60;97.00;;;;;;5041315;28;20041;-66
2023/03/14 01:27:34;;;;;;;1.60;0.80;;;8.60;97.80;;;;;;5048253;28;20032;-65
2023/03/14 01:30:00;;;;;;;0.70;0.63;;;8.70;98.00;;;;;;5060741;28;20414;-66
2023/03/14 01:32:26;;;;;;;2.05;0.77;;;8.80;98.00;;;;;;5057951;28;20033;-65
2023/03/14 01:34:51;;;;;;;1.77;0.85;;;8.90;98.00;;;;;;5057909;28;20024;-66
2023/03/14 01:37:17;;;;;;;1.20;0.77;;;9.00;98.00;;;;;;5055876;28;20102;-65
2023/03/14 01:39:43;;;;;;;1.00;0.70;;;8.90;97.90;;;;;;5045465;28;20025;-66
2023/03/14 01:42:08;;;;;;;1.33;0.73;;;8.80;98.00;;;;;;5038772;28;20497;-66
2023/03/14 01:44:54;;;;;;;0.75;0.70;;;8.80;96.80;;;;;;5054353;28;20452;-66
2023/03/14 01:47:21;;;;;;;1.02;0.70;;;8.70;97.40;;;;;;5057121;28;20025;-67
2023/03/14 01:49:55;;;;;;;0.93;0.70;;;8.80;98.00;;;;;;5056134;28;20066;-66
2023/03/14 01:52:38;;;;;;;1.60;0.70;;;8.80;98.00;;;;;;5057886;28;20414;-66
2023/03/14 01:55:09;;;;;;;1.52;0.68;;;8.80;98.00;;;;;;5052744;28;20390;-66
2023/03/14 01:57:48;;;;;;;1.55;0.80;;;8.80;97.40;;;;;;5051267;28;20025;-66
2023/03/14 02:00:18;;;;;;;1.52;0.80;;;8.80;98.00;;;;;;5057280;28;20044;-65
2023/03/14 02:02:50;;;;;;;1.17;0.70;;;8.90;98.00;;;;;;5056229;28;20029;-66
2023/03/14 02:05:19;;;;;;;1.55;0.70;;;8.90;98.00;;;;;;5049188;28;20368;-65
2023/03/14 02:07:54;;;;;;;1.15;0.77;;;8.90;98.00;;;;;;5053752;28;20036;-65
2023/03/14 02:10:24;;;;;;;1.25;0.75;;;9.00;98.00;;;;;;5042389;28;20029;-66
2023/03/14 02:12:52;;;;;;;0.88;0.70;;;9.00;98.00;;;;;;5036510;28;20029;-66
2023/03/14 02:15:19;;;;;;;1.67;0.80;;;9.00;98.00;;;;;;5055946;28;20031;-66
2023/03/14 02:17:45;;;;;;;1.67;0.73;;;9.00;98.00;;;;;;5056742;28;20150;-66
2023/03/14 02:20:29;;;;;;;1.85;0.85;;;9.00;98.00;;;;;;5056333;28;20029;-66
2023/03/14 02:22:55;;;;;;;1.80;0.75;;;9.00;98.00;;;;;;5066677;28;20029;-66
2023/03/14 02:25:47;;;;;;;1.85;0.90;;;9.10;98.00;;;;;;5045865;28;20322;-65
2023/03/14 02:28:13;;;;;;;3.10;0.80;;;9.10;98.00;;;;;;5050426;28;20025;-66
2023/03/14 02:30:40;;;;;;;2.03;0.80;;;9.10;98.00;;;;;;5052382;28;20056;-66
2023/03/14 02:33:09;;;;;;;0.80;0.70;;;9.10;98.00;;;;;;5046543;28;20029;-65
2023/03/14 02:35:57;;;;;;;2.17;0.70;;;9.00;98.00;;;;;;5055368;28;20025;-66
2023/03/14 02:38:46;;;;;;;2.40;0.80;;;9.00;98.00;;;;;;5037168;28;20055;-66
2023/03/14 02:41:11;;;;;;;2.60;0.90;;;9.00;98.00;;;;;;5047579;28;20029;-66
2023/03/14 02:43:37;;;;;;;2.35;0.80;;;9.00;98.00;;;;;;5054110;28;20025;-65
2023/03/14 02:46:05;;;;;;;2.38;0.93;;;9.00;98.00;;;;;;5061080;28;20029;-65
2023/03/14 02:48:57;;;;;;;1.85;0.88;;;8.90;98.00;;;;;;5055519;28;20029;-64
2023/03/14 02:51:25;;;;;;;3.88;0.90;;;8.90;97.90;;;;;;5045643;28;20318;-63
2023/03/14 02:53:50;;;;;;;2.50;1.00;;;8.90;97.90;;;;;;5057163;28;20024;-63
2023/03/14 02:56:19;;;;;;;2.92;1.10;;;9.00;98.00;;;;;;5059036;28;20086;-65
2023/03/14 02:58:44;;;;;;;2.13;0.80;;;9.00;97.50;;;;;;5055195;28;20322;-66
2023/03/14 03:01:10;;;;;;;1.70;0.80;;;9.00;97.70;;;;;;5047571;28;20037;-65
2023/03/14 03:03:35;;;;;;;4.32;0.90;;;9.00;97.40;;;;;;5054331;28;20329;-65
2023/03/14 03:06:01;;;;;;;2.40;0.90;;;9.10;97.20;;;;;;5066917;28;20113;-65
2023/03/14 03:08:28;;;;;;;3.17;0.90;;;9.00;97.40;;;;;;5052401;28;20040;-66
2023/03/14 03:10:54;;;;;;;3.40;1.10;;;9.00;97.70;;;;;;5041792;28;20028;-65
2023/03/14 03:13:20;;;;;;;2.28;0.90;;;8.90;98.00;;;;;;5038290;28;20045;-65
2023/03/14 03:15:49;;;;;;;2.50;0.98;;;8.80;97.90;;;;;;5049316;28;20488;-65
2023/03/14 03:18:15;;;;;;;3.42;0.90;;;8.70;97.90;;;;;;5046462;28;20037;-65
2023/03/14 03:20:42;;;;;;;3.10;0.98;;;8.70;98.00;;;;;;5053798;28;20020;-65
2023/03/14 03:23:08;;;;;;;3.60;0.98;;;8.70;98.00;;;;;;5056698;28;20021;-65
2023/03/14 03:25:34;;;;;;;1.77;0.85;;;8.60;97.90;;;;;;5057492;28;20108;-65
2023/03/14 03:28:00;;;;;;;1.50;0.82;;;8.60;97.90;;;;;;5051062;28;20029;-65
2023/03/14 03:30:25;;;;;;;3.85;1.00;;;8.50;98.00;;;;;;5055218;28;20041;-66
2023/03/14 03:32:51;;;;;;;2.20;0.85;;;8.50;98.00;;;;;;5054730;28;20440;-66
2023/03/14 03:35:16;;;;;;;2.47;0.93;;;8.50;98.00;;;;;;5055681;28;20374;-65
2023/03/14 03:37:42;;;;;;;2.97;0.90;;;8.40;98.00;;;;;;5056240;28;20480;-65
2023/03/14 03:40:08;;;;;;;2.47;1.10;;;8.40;98.00;;;;;;5058297;28;20056;-65
2023/03/14 03:42:35;;;;;;;2.88;1.00;;;8.30;98.00;;;;;;5037348;28;20033;-65
2023/03/14 03:45:01;;;;;;;4.35;1.25;;;8.30;98.00;;;;;;5050096;28;20033;-65
2023/03/14 03:47:27;;;;;;;3.10;1.00;;;8.30;98.00;;;;;;5052609;28;20036;-65
2023/03/14 03:49:53;;;;;;;3.35;1.20;;;8.30;98.00;;;;;;5052045;28;20029;-65
2023/03/14 03:52:18;;;;;;;2.25;0.98;;;8.20;98.00;;;;;;5052916;28;20098;-65
2023/03/14 03:54:44;;;;;;;3.15;1.05;;;8.20;98.00;;;;;;5041617;28;20049;-65
2023/03/14 03:57:10;;;;;;;5.35;1.52;;;8.20;98.00;;;;;;5029251;28;20371;-65
2023/03/14 03:59:35;;;;;;;3.65;1.10;;;8.20;98.00;;;;;;5049971;28;20036;-65
2023/03/14 04:02:01;;;;;;;4.50;1.25;;;8.10;98.00;;;;;;5033730;28;20029;-65
2023/03/14 04:04:26;;;;;;;3.83;0.98;;;8.10;98.00;;;;;;5022925;28;20036;-65
2023/03/14 04:06:52;;;;;;;3.58;1.20;;;8.10;98.00;;;;;;5049790;28;20036;-65
2023/03/14 04:09:17;;;;;;;4.30;1.23;;;8.20;97.90;;;;;;5052690;28;20031;-65
2023/03/14 04:11:43;;;;;;;6.15;1.33;;;8.20;97.70;;;;;;5042872;28;20013;-65
2023/03/14 04:14:09;;;;;;;4.68;1.10;;;8.30;97.30;;;;;;5037820;28;20048;-65
2023/03/14 04:16:35;;;;;;;5.30;1.40;;;8.30;97.10;;;;;;5044119;28;20100;-65
2023/03/14 04:19:01;;;;;;;2.50;1.05;;;8.30;97.40;;;;;;5053709;28;20372;-66
2023/03/14 04:21:27;;;;;;;4.57;1.00;;;8.20;96.90;;;;;;5053461;28;20334;-65
2023/03/14 04:23:52;;;;;;;4.80;1.40;;;8.30;96.60;;;;;;5045088;28;20021;-65
2023/03/14 04:26:18;;;;;;;3.70;1.10;;;8.30;96.20;;;;;;5045446;28;20044;-65
2023/03/14 04:28:44;;;;;;;4.03;1.17;;;8.40;95.80;;;;;;5040276;28;20029;-64
2023/03/14 04:31:10;;;;;;;4.55;1.17;;;8.50;95.20;;;;;;5052154;28;20033;-63
2023/03/14 04:33:37;;;;;;;3.63;1.40;;;8.60;95.20;;;;;;5053610;28;20433;-64
2023/03/14 04:36:03;;;;;;;5.55;1.02;;;8.60;94.60;;;;;;5054017;28;20330;-65
2023/03/14 04:38:29;;;;;;;2.65;0.93;;;8.60;93.80;;;;;;5056017;28;20037;-65
2023/03/14 04:40:55;;;;;;;4.45;1.15;;;8.60;93.50;;;;;;5051461;28;20047;-66
2023/03/14 04:43:23;;;;;;;4.70;1.10;;;8.60;94.10;;;;;;5052197;28;20053;-65
2023/03/14 04:45:49;;;;;;;4.80;1.50;;;8.50;93.80;;;;;;5050242;28;20043;-66
2023/03/14 04:48:14;;;;;;;7.85;1.35;;;8.50;94.00;;;;;;5070137;28;20477;-65
2023/03/14 04:50:40;;;;;;;4.32;1.27;;;8.50;93.80;;;;;;5056912;28;20029;-66
2023/03/14 04:53:06;;;;;;;2.78;0.95;;;8.40;94.20;;;;;;5061635;28;20036;-66
2023/03/14 04:55:32;;;;;;;7.30;1.42;;;8.30;94.90;;;;;;5073297;28;20111;-65
2023/03/14 04:57:58;;;;;;;6.35;1.30;;;8.20;95.30;;;;;;5053052;28;20729;-66
2023/03/14 05:00:26;;;;;;;5.03;1.17;;;8.30;94.70;;;;;;5046403;28;20076;-63
2023/03/14 05:02:52;;;;;;;5.45;1.58;;;8.40;94.40;;;;;;5053958;28;20017;-64
2023/03/14 05:05:17;;;;;;;3.80;1.55;;;8.40;94.50;;;;;;5058782;28;20036;-65
2023/03/14 05:07:43;;;;;;;5.38;1.10;;;8.50;94.20;;;;;;5064588;28;20020;-65
2023/03/14 05:10:09;;;;;;;6.32;1.38;;;8.60;93.90;;;;;;5069195;28;20033;-66
2023/03/14 05:12:35;;;;;;;5.25;1.10;;;8.60;94.10;;;;;;5054336;28;20036;-66
2023/03/14 05:15:00;;;;;;;5.40;1.10;;;8.60;93.70;;;;;;5054315;28;20036;-65
2023/03/14 05:17:26;;;;;;;2.42;1.00;;;8.60;94.00;;;;;;5053259;28;20372;-66
2023/03/14 05:19:55;;;;;;;2.72;1.05;;;8.60;93.80;;;;;;5040955;28;20124;-65
2023/03/14 05:22:20;;;;;;;4.57;1.10;;;8.60;93.80;;;;;;5053634;28;20025;-65
2023/03/14 05:24:46;;;;;;;6.50;1.20;;;8.60;93.90;;;;;;5058791;28;20028;-66
2023/03/14 05:27:12;;;;;;;4.15;1.30;;;8.50;94.20;;;;;;5047081;28;20112;-65
2023/03/14 05:29:37;;;;;;;3.22;1.00;;;8.50;94.10;;;;;;5050176;28;20029;-65
2023/03/14 05:32:03;;;;;;;4.82;1.25;;;8.50;94.30;;;;;;5054200;28;20036;-65
2023/03/14 05:34:28;;;;;;;2.60;0.90;;;8.50;94.10;;;;;;5052797;28;20040;-65
2023/03/14 05:36:55;;;;;;;3.92;1.02;;;8.60;93.40;;;;;;5049979;28;20028;-66
2023/03/14 05:39:21;;;;;;;3.53;0.95;;;8.60;93.50;;;;;;5071961;28;20062;-65
2023/03/14 05:41:47;;;;;;;4.10;1.02;;;8.50;93.90;;;;;;5061344;28;20064;-64
2023/03/14 05:44:15;;;;;;;3.10;1.20;;;8.50;93.70;;;;;;5057183;28;20021;-64
2023/03/14 05:46:41;;;;;;;4.00;1.20;;;8.60;93.50;;;;;;5057961;28;20040;-64
2023/03/14 05:49:07;;;;;;;6.55;1.10;;;8.50;94.00;;;;;;5052544;28;20025;-64
2023/03/14 05:51:32;;;;;;;2.40;0.95;;;8.50;93.80;;;;;;5055801;28;20037;-65
2023/03/14 05:53:58;;;;;;;3.65;0.90;;;8.50;93.70;;;;;;5055931;28;20314;-66
2023/03/14 05:56:23;;;;;;;3.13;1.08;;;8.50;93.60;;;;;;5049703;28;20017;-66
2023/03/14 05:58:49;;;;;;;2.90;0.90;;;8.50;93.70;;;;;;5057146;28;20071;-66
2023/03/14 06:01:17;;;;;;;3.13;0.98;;;8.40;94.00;;;;;;5057954;28;20044;-66
2023/03/14 06:03:43;;;;;;;2.83;0.93;;;8.40;94.20;;;;;;5059243;28;20036;-66
2023/03/14 06:06:08;;;;;;;3.33;1.05;;;8.40;94.20;;;;;;5054388;28;20040;-65
2023/03/14 06:08:34;;;;;;;2.03;0.80;;;8.50;93.80;;;;;;5055375;28;20024;-65
2023/03/14 06:11:02;;;;;;;2.20;0.82;;;8.50;94.00;;;;;;5053150;28;20048;-65
2023/03/14 06:13:27;;;;;;;2.72;0.95;;;8.40;94.00;;;;;;5054744;28;20044;-65
2023/03/14 06:15:53;;;;;;;2.90;1.10;;;8.50;93.80;;;;;;5056233;28;20310;-65
2023/03/14 06:18:18;;;;;;;4.38;1.10;;;8.60;93.10;;;;;;5055894;28;20033;-66
2023/03/14 06:20:46;;;;;;;3.15;1.23;;;8.70;92.90;;;;;;5035840;28;20021;-65
2023/03/14 06:23:12;;;;;;;2.13;0.88;;;8.70;92.80;;;;;;5048824;28;20306;-65
2023/03/14 06:25:38;;;;;;;2.42;0.90;;;8.70;92.60;;;;;;5047998;28;20112;-65
2023/03/14 06:28:03;;;;;;;1.30;0.70;;;8.80;92.50;;;;;;5051910;28;20496;-65
2023/03/14 06:30:29;;;;;;;3.35;0.80;;;8.80;92.50;;;;;;5056982;28;20024;-65
2023/03/14 06:32:55;;;;;;;1.83;0.70;;;8.80;92.50;;;;;;5055308;28;20060;-66
2023/03/14 06:35:21;;;;;;;3.53;0.90;;;8.80;92.50;;;;;;5053824;28;20036;-65
2023/03/14 06:37:46;;;;;;;3.45;0.90;;;8.90;91.80;;;;;;5042401;28;20021;-65
2023/03/14 06:40:16;;;;;;;2.55;1.10;;;8.90;92.00;;;;;;5062140;28;20060;-65
2023/03/14 06:42:42;;;;;;;4.63;1.00;;;9.00;91.70;;;;;;5051983;28;20032;-66
2023/03/14 06:45:08;;;;;;;2.58;0.88;;;9.00;91.70;;;;;;5056160;28;20029;-66
2023/03/14 06:47:34;;;;;;;1.77;0.90;;;9.00;91.80;;;;;;5057378;28;20044;-65
2023/03/14 06:49:59;;;;;;;1.85;0.80;;;9.00;92.20;;;;;;5057377;28;20414;-65
2023/03/14 06:52:25;;;;;;;5.97;1.25;;;9.00;92.30;;;;;;5043649;28;20034;-65
2023/03/14 06:54:51;;;;;;;3.90;0.70;;;9.00;92.20;;;;;;5036988;28;20033;-65
2023/03/14 06:57:16;;;;;;;2.30;0.93;;;9.00;92.00;;;;;;5042212;28;20033;-65
2023/03/14 06:59:42;;;;;;;3.28;0.90;;;9.00;91.70;;;;;;5055786;28;20029;-66
2023/03/14 07:02:12;;;;;;;3.30;1.08;;;9.10;91.50;;;;;;5054763;28;20079;-65
2023/03/14 07:04:38;;;;;;;2.08;0.80;;;9.10;91.80;;;;;;5060688;28;20033;-66
2023/03/14 07:07:03;;;;;;;4.10;1.60;;;9.20;91.50;;;;;;5056952;28;20168;-66
2023/03/14 07:09:30;;;;;;;3.58;1.42;;;9.20;90.90;;;;;;5056557;28;20079;-65
2023/03/14 07:11:56;;;;;;;4.13;1.27;;;9.30;91.30;;;;;;5054969;28;20413;-65
2023/03/14 07:14:22;;;;;;;2.10;0.75;;;9.40;90.50;;;;;;5048292;28;20017;-65
2023/03/14 07:16:47;;;;;;;3.85;1.10;;;9.30;90.40;;;;;;5056317;28;20032;-66
2023/03/14 07:19:13;;;;;;;4.40;1.40;;;9.30;90.60;;;;;;5055178;28;20024;-65
2023/03/14 07:21:38;;;;;;;1.75;0.90;;;9.20;90.90;;;;;;5028428;28;20033;-65
2023/03/14 07:24:04;;;;;;;2.60;0.75;;;9.20;91.10;;;;;;5028803;28;20028;-65
2023/03/14 07:26:30;;;;;;;2.10;1.23;;;9.30;90.50;;;;;;5054835;28;20025;-65
2023/03/14 07:28:56;;;;;;;1.88;0.80;;;9.30;90.80;;;;;;5051596;28;20048;-65
2023/03/14 07:31:22;;;;;;;1.85;0.80;;;9.30;91.10;;;;;;5049186;28;20041;-65
2023/03/14 07:33:47;;;;;;;3.45;0.80;;;9.20;91.10;;;;;;5053895;28;20036;-65
2023/03/14 07:36:13;;;;;;;4.35;0.85;;;9.30;90.30;;;;;;5054895;28;20029;-65
2023/03/14 07:38:38;;;;;;;2.58;0.98;;;9.60;89.90;;;;;;5051782;28;20116;-65
2023/03/14 07:41:05;;;;;;;2.78;0.90;;;9.90;88.80;;;;;;5056287;28;20449;-65
2023/03/14 07:43:31;;;;;;;3.05;0.80;;;10.10;88.70;;;;;;5052092;28;20110;-65
2023/03/14 07:45:57;;;;;;;1.70;1.00;;;10.10;87.80;;;;;;5045641;28;20376;-65
2023/03/14 07:48:24;;;;;;;1.58;0.77;;;10.00;88.10;;;;;;5053051;28;20041;-66
2023/03/14 07:50:51;;;;;;;2.83;0.75;;;10.00;87.70;;;;;;5054517;28;20021;-65
2023/03/14 07:53:17;;;;;;;2.80;1.05;;;10.10;87.70;;;;;;5055143;28;20410;-65
2023/03/14 07:55:44;;;;;;;1.23;0.70;;;10.20;87.20;;;;;;5052952;28;20032;-66
2023/03/14 07:58:09;;;;;;;2.35;0.80;;;10.20;87.30;;;;;;5052802;28;20033;-65
2023/03/14 08:00:35;;;;;;;2.67;1.08;;;10.30;87.20;;;;;;5060879;28;20041;-65
2023/03/14 08:03:00;;;;;;;1.83;0.70;;;10.50;86.80;;;;;;5044308;28;20029;-65
2023/03/14 08:05:26;;;;;;;2.50;0.80;;;10.50;86.10;;;;;;5049420;28;20087;-65
2023/03/14 08:07:51;;;;;;;3.83;0.93;;;10.50;86.10;;;;;;5055321;28;20079;-64
2023/03/14 08:10:23;;;;;;;3.55;0.90;;;10.60;86.00;;;;;;5054628;28;20025;-65
2023/03/14 08:12:54;;;;;;;2.95;0.80;;;10.60;86.20;;;;;;5048361;28;20391;-64
2023/03/14 08:15:20;;;;;;;3.42;1.17;;;10.70;85.50;;;;;;5043230;28;20029;-65
2023/03/14 08:17:50;;;;;;;2.00;0.77;;;10.80;85.60;;;;;;5050705;28;20409;-65
2023/03/14 08:20:20;;;;;;;2.95;0.90;;;10.80;84.80;;;;;;5042630;28;20033;-65
2023/03/14 08:22:45;;;;;;;3.67;1.00;;;10.80;85.50;;;;;;5035880;28;20024;-65
2023/03/14 08:25:11;;;;;;;2.17;0.90;;;10.50;85.70;;;;;;5035795;28;20030;-65
2023/03/14 08:27:38;;;;;;;3.17;1.00;;;10.40;86.40;;;;;;5034628;28;20041;-65
2023/03/14 08:30:05;;;;;;;3.53;0.90;;;10.30;86.70;;;;;;5035674;28;20029;-65
2023/03/14 08:32:31;;;;;;;3.33;1.00;;;10.30;87.10;;;;;;5035748;28;20025;-65
2023/03/14 08:34:57;;;;;;;2.60;0.90;;;10.30;87.00;;;;;;5048421;28;20302;-65
2023/03/14 08:37:24;;;;;;;2.00;0.90;;;10.40;86.70;;;;;;5056723;28;20032;-64
2023/03/14 08:39:50;;;;;;;2.90;1.00;;;10.40;87.20;;;;;;5059918;28;20029;-64
2023/03/14 08:42:17;;;;;;;2.25;0.90;;;10.50;86.80;;;;;;5058522;28;20021;-64
2023/03/14 08:44:42;;;;;;;2.25;0.82;;;10.70;86.70;;;;;;5059865;28;20021;-64
2023/03/14 08:47:08;;;;;;;5.07;1.02;;;10.80;86.10;;;;;;5059599;28;20415;-67
2023/03/14 08:49:33;;;;;;;3.42;0.90;;;10.80;86.00;;;;;;5057761;28;20413;-66
2023/03/14 08:52:00;;;;;;;3.55;1.10;;;10.90;85.70;;;;;;5058912;28;20029;-66
2023/03/14 08:54:26;;;;;;;2.47;0.70;;;11.10;85.40;;;;;;5059555;28;20115;-66
2023/03/14 08:56:51;;;;;;;2.25;0.80;;;11.10;85.40;;;;;;5058145;28;20109;-66
2023/03/14 08:59:17;;;;;;;3.28;0.80;;;11.30;85.00;;;;;;5040010;28;20026;-67
2023/03/14 09:01:43;;;;;;;2.83;0.90;;;11.30;85.10;;;;;;5039045;28;20037;-65
2023/03/14 09:04:09;;;;;;;2.53;0.80;;;11.40;85.20;;;;;;5039470;28;20429;-65
2023/03/14 09:06:35;;;;;;;4.10;0.80;;;11.30;85.30;;;;;;5039422;28;20199;-66
2023/03/14 09:09:01;;;;;;;2.65;0.80;;;11.40;84.60;;;;;;5039418;28;20022;-66
2023/03/14 09:11:26;;;;;;;1.77;0.70;;;11.20;84.90;;;;;;5039207;28;20022;-66
2023/03/14 09:13:52;;;;;;;1.95;0.98;;;10.90;87.40;;;;;;5038086;28;20021;-66
2023/03/14 09:16:17;;;;;;;1.27;0.70;;;10.60;89.90;;;;;;5039728;28;20048;-66
2023/03/14 09:18:43;;;;;;;1.83;0.60;;;10.10;90.80;;;;;;5059020;28;20435;-66
2023/03/14 09:21:09;;;;;;;3.65;0.70;;;9.80;92.80;;;;;;5059273;28;20031;-66
2023/03/14 09:23:34;;;;;;;1.95;0.77;;;9.60;93.40;;;;;;5057262;28;20017;-66
2023/03/14 09:26:00;;;;;;;1.00;0.60;;;9.40;94.80;;;;;;5061444;28;20029;-65
2023/03/14 09:28:27;;;;;;;2.00;0.80;;;9.50;95.00;;;;;;5072977;28;20036;-65
2023/03/14 09:30:55;;;;;;;1.10;0.68;;;9.40;95.90;;;;;;5078790;28;20036;-65
2023/03/14 09:33:21;;;;;;;1.67;1.00;;;9.50;95.10;;;;;;5065688;28;20430;-66
2023/03/14 09:35:46;;;;;;;2.47;0.82;;;9.40;95.20;;;;;;5057847;28;20036;-66
2023/03/14 09:38:12;;;;;;;1.45;0.82;;;9.10;96.30;;;;;;5048445;28;20029;-66
2023/03/14 09:40:38;;;;;;;0.85;0.68;;;9.00;96.40;;;;;;5039288;28;20036;-67
2023/03/14 09:43:05;;;;;;;1.35;0.70;;;8.80;96.90;;;;;;5039475;28;20029;-67
2023/03/14 09:45:40;;;;;;;1.40;0.80;;;8.70;97.60;;;;;;5058741;28;20376;-67
2023/03/14 09:48:12;;;;;;;3.78;1.00;;;8.60;97.30;;;;;;5038334;28;20021;-67
2023/03/14 09:50:53;;;;;;;1.60;0.80;;;8.50;97.90;;;;;;5044495;28;20033;-66
2023/03/14 09:53:25;;;;;;;0.60;0.60;;;8.50;96.40;;;;;;5058503;28;20025;-67
2023/03/14 09:55:52;;;;;;;1.27;0.77;;;8.50;96.90;;;;;;5059927;28;20082;-66
2023/03/14 09:58:22;;;;;;;1.23;0.65;;;8.60;96.30;;;;;;5057230;28;20024;-66
2023/03/14 10:00:50;;;;;;;2.30;0.80;;;8.60;98.00;;;;;;5057493;28;20315;-66
2023/03/14 10:03:31;;;;;;;1.38;0.80;;;8.60;97.30;;;;;;5058389;28;20025;-66
2023/03/14 10:05:58;;;;;;;0.65;0.60;;;8.70;98.00;;;;;;5056704;28;20069;-65
2023/03/14 10:08:24;;;;;;;1.27;0.70;;;8.90;98.00;;;;;;5051580;28;20102;-66
2023/03/14 10:10:49;;;;;;;1.60;0.65;;;9.10;97.50;;;;;;5038359;28;20025;-66
2023/03/14 10:13:24;;;;;;;0.68;0.60;;;9.50;97.00;;;;;;5036621;28;20122;-66
2023/03/14 10:15:53;;;;;;;1.88;0.90;;;10.10;96.70;;;;;;5048015;28;20021;-65
2023/03/14 10:18:19;;;;;;;0.60;0.60;;;10.50;93.20;;;;;;5057973;28;20025;-64
2023/03/14 10:20:47;;;;;;;0.82;0.65;;;10.70;91.80;;;;;;5057988;28;20080;-64
2023/03/14 10:23:13;;;;;;;1.63;0.80;;;10.90;90.90;;;;;;5056052;28;20110;-63
2023/03/14 10:25:42;;;;;;;0.93;0.70;;;10.90;90.90;;;;;;5057231;28;20056;-64
2023/03/14 10:28:28;;;;;;;2.35;0.65;;;10.90;90.70;;;;;;5056849;28;20108;-64
2023/03/14 10:30:54;;;;;;;0.68;0.60;;;10.70;91.10;;;;;;5058101;28;20422;-64
2023/03/14 10:33:24;;;;;;;0.73;0.60;;;10.70;91.00;;;;;;5057828;28;20102;-64
2023/03/14 10:36:01;;;;;;;1.95;0.70;;;10.70;91.80;;;;;;5046725;28;20021;-64
2023/03/14 10:38:31;;;;;;;2.88;0.60;;;10.70;91.70;;;;;;5047246;28;20021;-64
2023/03/14 10:40:58;;;;;;;2.22;1.10;;;10.50;91.40;;;;;;5055752;28;20025;-64
2023/03/14 10:43:27;;;;;;;0.98;0.70;;;10.40;91.30;;;;;;5036591;28;20028;-65
2023/03/14 10:45:57;;;;;;;0.98;0.70;;;10.40;91.70;;;;;;5047409;28;20106;-65
2023/03/14 10:48:34;;;;;;;1.75;0.70;;;10.50;91.30;;;;;;5057465;28;20032;-63
2023/03/14 10:51:03;;;;;;;2.65;0.80;;;10.40;92.10;;;;;;5057472;28;20033;-64
2023/03/14 10:53:42;;;;;;;1.45;0.80;;;10.30;92.80;;;;;;5057348;28;20036;-64
2023/03/14 10:56:21;;;;;;;0.60;0.60;;;10.20;93.40;;;;;;5055311;28;20041;-65
2023/03/14 10:58:57;;;;;;;1.40;0.90;;;10.10;94.40;;;;;;5056056;28;20120;-64
2023/03/14 11:02:01;;;;;;;3.10;1.40;;;9.90;95.10;;;;;;5056803;28;20342;-64
2023/03/14 11:04:41;;;;;;;2.07;1.10;;;9.70;95.60;;;;;;4976480;28;20030;-65
2023/03/14 11:07:27;;;;;;;1.50;0.80;;;9.30;96.90;;;;;;4976110;28;20125;-65
2023/03/14 11:10:19;;;;;;;3.13;1.25;;;9.10;97.40;;;;;;5018855;28;20095;-66
2023/03/14 11:13:19;;;;;;;10.73;3.80;;;8.80;97.50;;;;;;5036811;28;20112;-66
2023/03/14 11:16:17;;;;;;;3.30;1.48;;;8.60;98.00;;;;;;5055893;28;20029;-65
2023/03/14 11:19:06;;;;;;;2.70;1.30;;;8.50;98.00;;;;;;5041525;28;20021;-65
2023/03/14 11:21:52;;;;;;;2.33;1.30;;;8.50;97.80;;;;;;5036903;28;20322;-65
2023/03/14 11:24:32;;;;;;;2.42;1.40;;;8.40;97.00;;;;;;5052629;28;20033;-65
2023/03/14 11:27:17;;;;;;;2.30;0.98;;;8.40;98.00;;;;;;5048249;28;20033;-66
2023/03/14 11:30:03;;;;;;;2.92;1.92;;;8.40;97.10;;;;;;5043798;28;20033;-65
2023/03/14 11:32:57;;;;;;;2.45;1.40;;;8.40;97.10;;;;;;5019251;28;20033;-65
2023/03/14 11:35:38;;;;;;;2.67;1.20;;;8.30;96.70;;;;;;5041238;28;20032;-65
2023/03/14 11:38:21;;;;;;;1.63;0.80;;;8.40;96.50;;;;;;5056747;28;20098;-65
2023/03/14 11:40:49;;;;;;;1.80;1.10;;;8.30;96.30;;;;;;5056592;28;20021;-66
2023/03/14 11:43:30;;;;;;;2.17;1.20;;;8.20;96.40;;;;;;5054056;28;20090;-66
2023/03/14 11:46:03;;;;;;;1.80;0.70;;;8.20;97.60;;;;;;5055424;28;20066;-66
2023/03/14 11:48:56;;;;;;;1.73;0.90;;;8.30;96.70;;;;;;5056310;28;20033;-66
2023/03/14 11:51:32;;;;;;;0.65;0.65;;;8.30;95.40;;;;;;5056235;28;20028;-66
2023/03/14 11:54:04;;;;;;;0.60;0.60;;;8.50;98.00;;;;;;5056236;28;20060;-65
2023/03/14 11:56:39;;;;;;;1.05;0.82;;;8.40;97.00;;;;;;5045582;28;20041;-66
2023/03/14 11:59:12;;;;;;;1.60;0.90;;;8.50;96.70;;;;;;5028557;28;20330;-66
2023/03/14 12:01:55;;;;;;;2.13;0.93;;;8.60;97.30;;;;;;5055994;28;20049;-65
2023/03/14 12:04:23;;;;;;;1.55;0.73;;;8.40;97.40;;;;;;5056073;28;20017;-66
2023/03/14 12:06:51;;;;;;;1.00;0.70;;;8.40;96.50;;;;;;5055133;28;20056;-66
2023/03/14 12:09:22;;;;;;;2.08;1.10;;;8.40;98.00;;;;;;5056033;28;20025;-66
2023/03/14 12:11:57;;;;;;;1.98;0.95;;;8.30;98.00;;;;;;5046902;28;20044;-66
2023/03/14 12:14:25;;;;;;;1.13;0.80;;;8.10;97.60;;;;;;5050636;28;20037;-66
2023/03/14 12:17:07;;;;;;;1.45;0.80;;;8.00;96.90;;;;;;5055190;28;20364;-66
2023/03/14 12:19:39;;;;;;;2.45;0.93;;;7.90;96.30;;;;;;5055904;28;20028;-66
2023/03/14 12:22:25;;;;;;;2.95;1.40;;;7.80;94.30;;;;;;5054827;28;20049;-67
2023/03/14 12:25:22;;;;;;;1.98;0.80;;;7.70;92.80;;;;;;5055929;28;20021;-67
2023/03/14 12:27:56;;;;;;;6.80;1.90;;;7.60;91.80;;;;;;5053528;28;20025;-67
2023/03/14 12:30:32;;;;;;;2.78;1.30;;;7.50;87.80;;;;;;5055816;28;20028;-66
2023/03/14 12:33:10;;;;;;;3.40;1.40;;;6.80;97.20;;;;;;5040288;28;20022;-65
2023/03/14 12:35:36;;;;;;;3.58;1.27;;;6.40;97.20;;;;;;5035825;28;20041;-65
2023/03/14 12:38:06;;;;;;;3.30;1.63;;;6.20;95.60;;;;;;5035601;28;20018;-66
2023/03/14 12:40:39;;;;;;;7.93;4.03;;;6.20;97.40;;;;;;5035757;28;20100;-67
2023/03/14 12:43:28;;;;;;;5.47;2.57;;;6.20;94.90;;;;;;5036649;28;20029;-65
2023/03/14 12:46:12;;;;;;;5.95;1.67;;;6.40;94.50;;;;;;5045904;28;20283;-66
2023/03/14 12:48:40;;;;;;;3.50;1.30;;;6.60;96.40;;;;;;5055506;28;20029;-65
2023/03/14 12:51:27;;;;;;;6.60;1.73;;;6.60;95.10;;;;;;5055686;28;20064;-65
2023/03/14 12:54:12;;;;;;;4.65;2.00;;;6.60;96.40;;;;;;5035675;28;20082;-65
2023/03/14 12:56:50;;;;;;;;;;;6.70;94.30;;;;;;5035446;28;20026;-65
2023/03/14 12:59:35;;;;;;;4.60;1.63;;;6.70;96.50;;;;;;5035590;28;19954;-65
2023/03/14 13:02:06;;;;;;;2.35;1.30;;;6.90;98.00;;;;;;5042007;28;20116;-65
2023/03/14 13:04:46;;;;;;;3.53;1.83;;;7.30;98.00;;;;;;5055525;28;20418;-66
2023/03/14 13:07:28;;;;;;;3.90;1.90;;;8.00;98.00;;;;;;5055335;28;20021;-65